Latest Coastal Weather Observations for Charles Point

IDD60701

Issued at 3:11 am CST Tuesday 26 July 2016 (issued every 10 minutes, with the page automatically refreshed every 10 minutes)

About coastal observations | Map of coastal stations | Coastal observations for NT | Marine services | Other Formats
Station Details ID: 014031 Name: CHARLES POINT Lat: -12.39 Lon: 130.63 Height: 14.0 m
Data from the previous 72 hours. | See also: Recent months for locations in Northern Territory
Date/Time
CST
Temp
°C
Wind Pressure Rain since
9am
mm
Weather Cloud Vis
km
Sea
Height
m
Swell
Dir  Spd
kts
Gust
kts
hPa Trend Height
m
Period
s
Dir
26/03:00am 21.7 CALM 0 0 1012.6 - 0.0 - - - - - - -
26/02:30am 22.0 CALM 0 1 1012.6 - 0.0 - - - - - - -
26/02:00am 22.0 SW 2 2 1012.8 - 0.0 - - - - - - -
26/01:30am 22.4 SW 2 3 1013.0 - 0.0 - - - - - - -
26/01:00am 22.4 SW 2 3 1012.9 - 0.0 - - - - - - -
26/12:30am 22.6 SW 3 3 1012.9 - 0.0 - - - - - - -
26/12:00am 22.7 WSW 3 3 1013.0 - 0.0 - - - - - - -
 
Date/Time
CST
Temp
°C
Wind Pressure Rain since
9am
mm
Weather Cloud Vis
km
Sea
Height
m
Swell
Dir  Spd
kts
Gust
kts
hPa Trend Height
m
Period
s
Dir
25/11:30pm 22.8 WSW 3 4 1013.1 - 0.0 - - - - - - -
25/11:00pm 22.6 WSW 3 4 1013.1 - 0.0 - - - - - - -
25/10:30pm 22.8 WSW 3 4 1013.0 - 0.0 - - - - - - -
25/10:00pm 22.8 W 3 4 1012.8 - 0.0 - - - - - - -
25/09:30pm 23.1 W 3 4 1012.6 - 0.0 - - - - - - -
25/09:00pm 23.1 W 3 3 1012.4 - 0.0 - - - - - - -
25/08:30pm 23.4 W 2 3 1011.9 - 0.0 - - - - - - -
25/08:00pm 23.6 W 3 4 1011.6 - 0.0 - - - - - - -
25/07:30pm 24.0 W 2 3 1011.3 - 0.0 - - - - - - -
25/07:00pm 24.9 W 2 4 1011.2 - 0.0 - - - - - - -
25/06:30pm 26.1 W 2 3 1011.0 - 0.0 - - - - - - -
25/06:00pm 27.5 WNW 5 6 1010.7 - 0.0 - - - - - - -
25/05:30pm 28.3 WNW 5 6 1010.5 - 0.0 - - - - - - -
25/05:00pm 28.8 WNW 6 9 1010.4 - 0.0 - - - - - - -
25/04:30pm 28.6 NNW 5 7 1010.4 - 0.0 - - - - - - -
25/04:00pm 28.9 NW 6 9 1010.4 - 0.0 - - - - - - -
25/03:30pm 28.8 NW 6 8 1010.5 - 0.0 - - - - - - -
25/03:00pm 28.9 NNW 6 8 1010.6 - 0.0 - - - - - - -
25/02:30pm 28.8 NW 7 9 1010.8 - 0.0 - - - - - - -
25/02:00pm 28.7 N 6 9 1011.2 - 0.0 - - - - - - -
25/01:30pm 28.9 NNE 5 8 1011.7 - 0.0 - - - - - - -
25/01:00pm 29.1 ENE 5 7 1012.2 - 0.0 - - - - - - -
25/12:30pm 28.4 E 5 8 1012.8 - 0.0 - - - - - - -
25/12:00pm 28.6 ESE 4 6 1013.0 - 0.0 - - - - - - -
25/11:30am 28.7 ESE 4 5 1013.0 - 0.0 - - - - - - -
25/11:00am 29.1 SE 4 6 1013.5 - 0.0 - - - - - - -
25/10:30am 28.8 SE 3 5 1013.8 - 0.0 - - - - - - -
25/10:00am 27.8 SSE 3 5 1014.0 - 0.0 - - - - - - -
25/09:30am 27.5 S 2 4 1014.0 - 0.0 - - - - - - -
25/09:00am 25.7 S 3 4 1013.8 - 0.0 - - - - - - -
25/08:30am 24.0 SSW 3 4 1013.6 - 0.0 - - - - - - -
25/08:00am 23.4 NNW 3 5 1013.2 - 0.0 - - - - - - -
25/07:30am 22.0 NNW 3 4 1012.9 - 0.0 - - - - - - -
25/07:00am 21.8 NNW 3 3 1012.6 - 0.0 - - - - - - -
25/06:30am 21.9 NNW 2 2 1012.4 - 0.0 - - - - - - -
25/06:00am 22.0 NNW 3 3 1012.2 - 0.0 - - - - - - -
25/05:30am 22.2 NNW 3 3 1012.2 - 0.0 - - - - - - -
25/05:00am 22.4 NNW 2 2 1012.0 - 0.0 - - - - - - -
25/04:30am 22.4 NNW 1 2 1011.9 - 0.0 - - - - - - -
25/04:00am 22.8 NNW 2 2 1011.9 - 0.0 - - - - - - -
25/03:30am 22.6 NNW 2 2 1012.0 - 0.0 - - - - - - -
25/03:00am 22.7 CALM 0 0 1012.0 - 0.0 - - - - - - -
25/02:30am 22.9 NNW 1 1 1012.1 - 0.0 - - - - - - -
25/02:00am 23.3 CALM 0 0 1012.3 - 0.0 - - - - - - -
25/01:30am 23.6 CALM 0 0 1012.4 - 0.0 - - - - - - -
25/01:00am 24.4 CALM 0 0 1012.6 - 0.0 - - - - - - -
25/12:30am 25.9 N 2 4 1012.6 - 0.0 - - - - - - -
25/12:00am 26.6 N 8 9 1012.5 - 0.0 - - - - - - -
 
Date/Time
CST
Temp
°C
Wind Pressure Rain since
9am
mm
Weather Cloud Vis
km
Sea
Height
m
Swell
Dir  Spd
kts
Gust
kts
hPa Trend Height
m
Period
s
Dir
24/11:30pm 26.7 N 12 14 1012.7 - 0.0 - - - - - - -
24/11:00pm 25.6 SSE 3 5 1012.8 - 0.0 - - - - - - -
24/10:30pm 25.3 SSE 3 6 1013.0 - 0.0 - - - - - - -
24/10:00pm 24.4 SSW 3 5 1013.0 - 0.0 - - - - - - -
24/09:30pm 24.8 SW 4 5 1012.7 - 0.0 - - - - - - -
24/09:00pm 24.8 WSW 3 5 1012.3 - 0.0 - - - - - - -
24/08:30pm 24.9 WSW 3 4 1012.1 - 0.0 - - - - - - -
24/08:00pm 24.9 W 5 7 1011.3 - 0.0 - - - - - - -
24/07:30pm 24.9 NNW 3 4 1011.0 - 0.0 - - - - - - -
24/07:00pm 25.4 N 2 3 1010.8 - 0.0 - - - - - - -
24/06:30pm 27.9 CALM 0 0 1010.6 - 0.0 - - - - - - -
24/06:00pm 28.1 N 2 2 1010.3 - 0.0 - - - - - - -
24/05:30pm 28.6 N 3 4 1010.1 - 0.0 - - - - - - -
24/05:00pm 28.9 NW 4 5 1010.1 - 0.0 - - - - - - -
24/04:30pm 29.1 NNW 5 7 1010.0 - 0.0 - - - - - - -
24/04:00pm 29.1 NW 5 7 1009.9 - 0.0 - - - - - - -
24/03:30pm 29.1 NNW 6 8 1010.1 - 0.0 - - - - - - -
24/03:00pm 29.5 NW 6 8 1010.4 - 0.0 - - - - - - -
24/02:30pm 29.4 NNW 5 8 1010.8 - 0.0 - - - - - - -
24/02:00pm 28.8 NE 7 8 1010.9 - 0.0 - - - - - - -
24/01:30pm 28.7 E 6 8 1011.6 - 0.0 - - - - - - -
24/01:00pm 28.8 SE 5 6 1012.1 - 0.0 - - - - - - -
24/12:30pm 28.6 SE 3 5 1012.6 - 0.0 - - - - - - -
24/12:00pm 29.2 SE 3 3 1013.0 - 0.0 - - - - - - -
24/11:30am 29.9 SE 3 4 1013.4 - 0.0 - - - - - - -
24/11:00am 30.2 SE 3 4 1013.8 - 0.0 - - - - - - -
24/10:30am 29.2 SSE 3 4 1014.0 - 0.0 - - - - - - -
24/10:00am 28.5 SSE 3 4 1013.9 - 0.0 - - - - - - -
24/09:30am 27.3 S 2 3 1014.0 - 0.0 - - - - - - -
24/09:00am 26.3 S 1 2 1013.8 - 0.0 - - - - - - -
24/08:30am 24.9 S 1 2 1013.5 - 0.0 - - - - - - -
24/08:00am 23.5 S 1 1 1013.2 - 0.0 - - - - - - -
24/07:30am 22.3 S 2 2 1012.8 - 0.0 - - - - - - -
24/07:00am 22.1 S 2 2 1012.6 - 0.0 - - - - - - -
24/06:30am 22.5 S 2 3 1012.3 - 0.0 - - - - - - -
24/06:00am 22.5 S 2 3 1012.0 - 0.0 - - - - - - -
24/05:30am 23.1 S 2 3 1011.9 - 0.0 - - - - - - -
24/05:00am 22.6 S 2 2 1011.7 - 0.0 - - - - - - -
24/04:30am 22.5 S 2 2 1011.5 - 0.0 - - - - - - -
24/04:00am 22.5 CALM 0 0 1011.6 - 0.0 - - - - - - -
24/03:30am 22.4 CALM 0 0 1011.6 - 0.0 - - - - - - -
24/03:00am 22.7 CALM 0 0 1011.8 - 0.0 - - - - - - -
24/02:30am 22.8 SSW 2 3 1011.7 - 0.0 - - - - - - -
24/02:00am 23.1 S 3 4 1011.8 - 0.0 - - - - - - -
24/01:30am 23.4 S 3 4 1011.9 - 0.0 - - - - - - -
24/01:00am 23.7 SSW 4 5 1011.6 - 0.0 - - - - - - -
24/12:30am 23.6 S 4 5 1011.6 - 0.0 - - - - - - -
24/12:00am 23.9 S 3 4 1011.7 - 0.0 - - - - - - -
 
Date/Time
CST
Temp
°C
Wind Pressure Rain since
9am
mm
Weather Cloud Vis
km
Sea
Height
m
Swell
Dir  Spd
kts
Gust
kts
hPa Trend Height
m
Period
s
Dir
23/11:30pm 23.9 S 3 4 1011.7 - 0.0 - - - - - - -
23/11:00pm 24.1 SSW 3 5 1011.3 - 0.0 - - - - - - -
23/10:30pm 24.0 SSW 3 6 1011.2 - 0.0 - - - - - - -
23/10:00pm 24.0 SW 3 5 1011.1 - 0.0 - - - - - - -
23/09:30pm 24.2 SW 2 3 1010.9 - 0.0 - - - - - - -
23/09:00pm 24.4 SW 3 4 1010.8 - 0.0 - - - - - - -
23/08:30pm 24.6 SW 2 3 1010.5 - 0.0 - - - - - - -
23/08:00pm 24.8 SW 2 4 1010.3 - 0.0 - - - - - - -
23/07:30pm 25.3 SW 2 3 1010.1 - 0.0 - - - - - - -
23/07:00pm 25.7 SW 2 3 1010.0 - 0.0 - - - - - - -
23/06:30pm 27.0 WSW 1 3 1009.8 - 0.0 - - - - - - -
23/06:00pm 28.3 WSW 3 5 1009.6 - 0.0 - - - - - - -
23/05:30pm 29.1 W 4 8 1009.6 - 0.0 - - - - - - -
23/05:00pm 29.4 WNW 6 8 1009.5 - 0.0 - - - - - - -
23/04:30pm 29.8 WNW 6 8 1009.5 - 0.0 - - - - - - -
23/04:00pm 29.4 NW 6 9 1009.5 - 0.0 - - - - - - -
23/03:30pm 29.6 NW 7 10 1009.7 - 0.0 - - - - - - -
23/03:00pm 29.9 WNW 7 10 1010.0 - 0.0 - - - - - - -
23/02:30pm 30.1 WNW 7 10 1010.5 - 0.0 - - - - - - -
23/02:00pm 29.9 WNW 6 10 1010.9 - 0.0 - - - - - - -
23/01:30pm 29.7 NW 6 8 1011.4 - 0.0 - - - - - - -
23/01:00pm 28.9 NW 5 6 1011.9 - 0.0 - - - - - - -
23/12:30pm 28.9 NW 5 6 1012.2 - 0.0 - - - - - - -
23/12:00pm 28.6 WNW 6 7 1012.7 - 0.0 - - - - - - -
23/11:30am 28.3 SW 3 3 1013.3 - 0.0 - - - - - - -
23/11:00am 28.5 SW 2 3 1013.6 - 0.0 - - - - - - -
23/10:30am 27.8 SW 2 3 1013.7 - 0.0 - - - - - - -
23/10:00am 27.9 SW 2 2 1013.9 - 0.0 - - - - - - -
23/09:30am 26.9 SW 1 2 1013.7 - 0.0 - - - - - - -
23/09:00am 26.4 SW 1 1 1013.6 - 0.0 - - - - - - -
23/08:30am 24.1 SW 2 3 1013.4 - 0.0 - - - - - - -
23/08:00am 22.6 SW 2 3 1013.0 - 0.0 - - - - - - -
23/07:30am 21.5 SW 2 3 1012.7 - 0.0 - - - - - - -
23/07:00am 21.5 SW 2 3 1012.5 - 0.0 - - - - - - -
23/06:30am 21.8 SW 2 3 1012.1 - 0.0 - - - - - - -
23/06:00am 22.2 SW 2 2 1011.8 - 0.0 - - - - - - -
23/05:30am 22.7 SW 3 4 1011.6 - 0.0 - - - - - - -
23/05:00am 23.3 WSW 2 3 1011.4 - 0.0 - - - - - - -
23/04:30am 23.5 WSW 2 3 1011.1 - 0.0 - - - - - - -
23/04:00am 23.7 WSW 2 4 1011.0 - 0.0 - - - - - - -
23/03:30am 24.1 WSW 2 4 1011.2 - 0.0 - - - - - - -

Other Formats:

Comma delimited format used in spreadsheet applications
http://www.bom.gov.au/fwo/IDD60701/IDD60701.99510.axf

JavaScript Object Notation format (JSON) in row-major order
http://www.bom.gov.au/fwo/IDD60701/IDD60701.99510.json